sensor_id;sensor_type;location;lat;lon;timestamp;P1;durP1;ratioP1;P2;durP2;ratioP2
19944;SDS011;10134;50.952;6.930;2022-08-21T00:01:50;9.80;;;6.47;;
19944;SDS011;10134;50.952;6.930;2022-08-21T00:04:18;10.38;;;7.07;;
19944;SDS011;10134;50.952;6.930;2022-08-21T00:06:49;10.82;;;6.53;;
19944;SDS011;10134;50.952;6.930;2022-08-21T00:09:17;9.45;;;6.38;;
19944;SDS011;10134;50.952;6.930;2022-08-21T00:11:45;8.88;;;5.90;;
19944;SDS011;10134;50.952;6.930;2022-08-21T00:14:14;10.85;;;6.25;;
19944;SDS011;10134;50.952;6.930;2022-08-21T00:16:42;8.70;;;5.93;;
19944;SDS011;10134;50.952;6.930;2022-08-21T00:19:09;7.32;;;5.40;;
19944;SDS011;10134;50.952;6.930;2022-08-21T00:21:37;7.30;;;5.40;;
19944;SDS011;10134;50.952;6.930;2022-08-21T00:24:04;9.80;;;6.05;;
19944;SDS011;10134;50.952;6.930;2022-08-21T00:26:33;7.55;;;5.10;;
19944;SDS011;10134;50.952;6.930;2022-08-21T00:29:03;8.90;;;5.63;;
19944;SDS011;10134;50.952;6.930;2022-08-21T00:31:30;17.05;;;9.50;;
19944;SDS011;10134;50.952;6.930;2022-08-21T00:33:58;14.93;;;9.70;;
19944;SDS011;10134;50.952;6.930;2022-08-21T00:36:27;15.98;;;10.88;;
19944;SDS011;10134;50.952;6.930;2022-08-21T00:38:55;20.35;;;10.85;;
19944;SDS011;10134;50.952;6.930;2022-08-21T00:41:23;15.90;;;9.77;;
19944;SDS011;10134;50.952;6.930;2022-08-21T00:44:06;12.18;;;8.18;;
19944;SDS011;10134;50.952;6.930;2022-08-21T00:46:37;9.93;;;6.13;;
19944;SDS011;10134;50.952;6.930;2022-08-21T00:49:05;11.98;;;6.38;;
19944;SDS011;10134;50.952;6.930;2022-08-21T00:51:45;11.18;;;6.50;;
19944;SDS011;10134;50.952;6.930;2022-08-21T00:54:18;10.82;;;6.28;;
19944;SDS011;10134;50.952;6.930;2022-08-21T00:56:51;9.88;;;5.18;;
19944;SDS011;10134;50.952;6.930;2022-08-21T00:59:25;8.55;;;5.22;;
19944;SDS011;10134;50.952;6.930;2022-08-21T01:01:54;9.43;;;4.50;;
19944;SDS011;10134;50.952;6.930;2022-08-21T01:04:21;12.20;;;6.25;;
19944;SDS011;10134;50.952;6.930;2022-08-21T01:06:49;6.65;;;4.40;;
19944;SDS011;10134;50.952;6.930;2022-08-21T01:09:18;9.10;;;4.90;;
19944;SDS011;10134;50.952;6.930;2022-08-21T01:11:45;11.50;;;4.72;;
19944;SDS011;10134;50.952;6.930;2022-08-21T01:14:13;7.68;;;4.82;;
19944;SDS011;10134;50.952;6.930;2022-08-21T01:16:43;6.22;;;4.00;;
19944;SDS011;10134;50.952;6.930;2022-08-21T01:19:12;7.80;;;4.43;;
19944;SDS011;10134;50.952;6.930;2022-08-21T01:21:41;7.07;;;4.25;;
19944;SDS011;10134;50.952;6.930;2022-08-21T01:24:10;7.18;;;4.95;;
19944;SDS011;10134;50.952;6.930;2022-08-21T01:26:38;10.73;;;5.20;;
19944;SDS011;10134;50.952;6.930;2022-08-21T01:29:07;10.65;;;5.40;;
19944;SDS011;10134;50.952;6.930;2022-08-21T01:31:36;6.00;;;4.30;;
19944;SDS011;10134;50.952;6.930;2022-08-21T01:34:05;7.68;;;5.22;;
19944;SDS011;10134;50.952;6.930;2022-08-21T01:36:33;7.85;;;4.88;;
19944;SDS011;10134;50.952;6.930;2022-08-21T01:39:02;7.30;;;4.45;;
19944;SDS011;10134;50.952;6.930;2022-08-21T01:41:30;7.95;;;5.65;;
19944;SDS011;10134;50.952;6.930;2022-08-21T01:43:58;9.35;;;5.10;;
19944;SDS011;10134;50.952;6.930;2022-08-21T01:46:25;12.77;;;5.72;;
19944;SDS011;10134;50.952;6.930;2022-08-21T01:48:53;8.18;;;5.15;;
19944;SDS011;10134;50.952;6.930;2022-08-21T01:51:20;11.40;;;6.07;;
19944;SDS011;10134;50.952;6.930;2022-08-21T01:53:47;10.52;;;4.80;;
19944;SDS011;10134;50.952;6.930;2022-08-21T01:56:15;7.18;;;4.80;;
19944;SDS011;10134;50.952;6.930;2022-08-21T01:58:45;10.10;;;4.95;;
19944;SDS011;10134;50.952;6.930;2022-08-21T02:01:13;6.43;;;5.15;;
19944;SDS011;10134;50.952;6.930;2022-08-21T02:03:41;18.58;;;7.03;;
19944;SDS011;10134;50.952;6.930;2022-08-21T02:06:12;8.25;;;4.22;;
19944;SDS011;10134;50.952;6.930;2022-08-21T02:08:41;11.35;;;5.88;;
19944;SDS011;10134;50.952;6.930;2022-08-21T02:11:08;10.77;;;5.72;;
19944;SDS011;10134;50.952;6.930;2022-08-21T02:13:35;9.88;;;4.88;;
19944;SDS011;10134;50.952;6.930;2022-08-21T02:16:03;9.95;;;4.65;;
19944;SDS011;10134;50.952;6.930;2022-08-21T02:18:30;5.70;;;4.43;;
19944;SDS011;10134;50.952;6.930;2022-08-21T02:20:58;6.50;;;4.20;;
19944;SDS011;10134;50.952;6.930;2022-08-21T02:23:25;7.55;;;4.95;;
19944;SDS011;10134;50.952;6.930;2022-08-21T02:25:54;8.85;;;4.43;;
19944;SDS011;10134;50.952;6.930;2022-08-21T02:28:23;9.95;;;5.03;;
19944;SDS011;10134;50.952;6.930;2022-08-21T02:30:51;10.77;;;4.72;;
19944;SDS011;10134;50.952;6.930;2022-08-21T02:33:19;6.18;;;4.03;;
19944;SDS011;10134;50.952;6.930;2022-08-21T02:35:47;10.05;;;4.65;;
19944;SDS011;10134;50.952;6.930;2022-08-21T02:38:17;7.32;;;4.32;;
19944;SDS011;10134;50.952;6.930;2022-08-21T02:40:47;12.02;;;5.40;;
19944;SDS011;10134;50.952;6.930;2022-08-21T02:43:17;6.28;;;4.43;;
19944;SDS011;10134;50.952;6.930;2022-08-21T02:45:46;8.55;;;5.22;;
19944;SDS011;10134;50.952;6.930;2022-08-21T02:48:15;6.90;;;4.25;;
19944;SDS011;10134;50.952;6.930;2022-08-21T02:50:51;7.53;;;5.10;;
19944;SDS011;10134;50.952;6.930;2022-08-21T02:53:23;8.68;;;4.55;;
19944;SDS011;10134;50.952;6.930;2022-08-21T02:55:51;5.32;;;4.05;;
19944;SDS011;10134;50.952;6.930;2022-08-21T02:58:22;8.57;;;5.10;;
19944;SDS011;10134;50.952;6.930;2022-08-21T03:00:52;9.55;;;5.38;;
19944;SDS011;10134;50.952;6.930;2022-08-21T03:03:19;7.10;;;4.78;;
19944;SDS011;10134;50.952;6.930;2022-08-21T03:05:48;7.18;;;4.85;;
19944;SDS011;10134;50.952;6.930;2022-08-21T03:08:15;6.05;;;4.40;;
19944;SDS011;10134;50.952;6.930;2022-08-21T03:10:47;8.13;;;5.97;;
19944;SDS011;10134;50.952;6.930;2022-08-21T03:13:17;9.88;;;5.22;;
19944;SDS011;10134;50.952;6.930;2022-08-21T03:15:47;6.68;;;4.55;;
19944;SDS011;10134;50.952;6.930;2022-08-21T03:18:15;8.00;;;4.80;;
19944;SDS011;10134;50.952;6.930;2022-08-21T03:20:43;11.00;;;5.50;;
19944;SDS011;10134;50.952;6.930;2022-08-21T03:23:12;6.97;;;4.50;;
19944;SDS011;10134;50.952;6.930;2022-08-21T03:25:45;8.32;;;5.82;;
19944;SDS011;10134;50.952;6.930;2022-08-21T03:28:15;8.20;;;5.45;;
19944;SDS011;10134;50.952;6.930;2022-08-21T03:30:45;8.82;;;5.53;;
19944;SDS011;10134;50.952;6.930;2022-08-21T03:33:14;11.85;;;6.18;;
19944;SDS011;10134;50.952;6.930;2022-08-21T03:35:46;8.10;;;4.80;;
19944;SDS011;10134;50.952;6.930;2022-08-21T03:38:27;8.77;;;5.90;;
19944;SDS011;10134;50.952;6.930;2022-08-21T03:40:55;8.02;;;5.53;;
19944;SDS011;10134;50.952;6.930;2022-08-21T03:43:23;10.48;;;5.53;;
19944;SDS011;10134;50.952;6.930;2022-08-21T03:45:50;8.60;;;5.47;;
19944;SDS011;10134;50.952;6.930;2022-08-21T03:48:18;9.23;;;6.65;;
19944;SDS011;10134;50.952;6.930;2022-08-21T03:50:46;8.75;;;6.13;;
19944;SDS011;10134;50.952;6.930;2022-08-21T03:53:15;10.15;;;6.53;;
19944;SDS011;10134;50.952;6.930;2022-08-21T03:55:44;9.80;;;6.43;;
19944;SDS011;10134;50.952;6.930;2022-08-21T03:58:14;11.23;;;8.45;;
19944;SDS011;10134;50.952;6.930;2022-08-21T04:00:44;9.90;;;7.57;;
19944;SDS011;10134;50.952;6.930;2022-08-21T04:03:13;9.48;;;7.72;;
19944;SDS011;10134;50.952;6.930;2022-08-21T04:05:40;13.13;;;8.65;;
19944;SDS011;10134;50.952;6.930;2022-08-21T04:08:08;10.13;;;6.82;;
19944;SDS011;10134;50.952;6.930;2022-08-21T04:10:36;8.98;;;6.75;;
19944;SDS011;10134;50.952;6.930;2022-08-21T04:13:06;8.07;;;6.57;;
19944;SDS011;10134;50.952;6.930;2022-08-21T04:15:35;12.38;;;8.70;;
19944;SDS011;10134;50.952;6.930;2022-08-21T04:18:03;9.73;;;6.88;;
19944;SDS011;10134;50.952;6.930;2022-08-21T04:20:30;10.80;;;7.85;;
19944;SDS011;10134;50.952;6.930;2022-08-21T04:22:58;6.72;;;5.78;;
19944;SDS011;10134;50.952;6.930;2022-08-21T04:25:25;9.57;;;6.53;;
19944;SDS011;10134;50.952;6.930;2022-08-21T04:27:53;9.70;;;6.43;;
19944;SDS011;10134;50.952;6.930;2022-08-21T04:30:21;12.15;;;7.60;;
19944;SDS011;10134;50.952;6.930;2022-08-21T04:32:55;11.68;;;6.80;;
19944;SDS011;10134;50.952;6.930;2022-08-21T04:35:25;19.83;;;8.60;;
19944;SDS011;10134;50.952;6.930;2022-08-21T04:37:53;11.45;;;7.10;;
19944;SDS011;10134;50.952;6.930;2022-08-21T04:40:21;13.75;;;8.02;;
19944;SDS011;10134;50.952;6.930;2022-08-21T04:42:52;8.13;;;6.05;;
19944;SDS011;10134;50.952;6.930;2022-08-21T04:45:27;10.68;;;7.28;;
19944;SDS011;10134;50.952;6.930;2022-08-21T04:48:02;11.80;;;8.02;;
19944;SDS011;10134;50.952;6.930;2022-08-21T04:50:41;13.82;;;7.13;;
19944;SDS011;10134;50.952;6.930;2022-08-21T04:53:20;9.73;;;5.75;;
19944;SDS011;10134;50.952;6.930;2022-08-21T04:55:52;10.85;;;5.75;;
19944;SDS011;10134;50.952;6.930;2022-08-21T04:58:21;11.52;;;7.47;;
19944;SDS011;10134;50.952;6.930;2022-08-21T05:00:52;8.70;;;4.97;;
19944;SDS011;10134;50.952;6.930;2022-08-21T05:03:22;7.43;;;5.47;;
19944;SDS011;10134;50.952;6.930;2022-08-21T05:05:50;6.60;;;4.45;;
19944;SDS011;10134;50.952;6.930;2022-08-21T05:08:18;9.43;;;6.53;;
19944;SDS011;10134;50.952;6.930;2022-08-21T05:10:48;11.40;;;4.43;;
19944;SDS011;10134;50.952;6.930;2022-08-21T05:13:15;12.30;;;5.95;;
19944;SDS011;10134;50.952;6.930;2022-08-21T05:15:43;8.38;;;5.45;;
19944;SDS011;10134;50.952;6.930;2022-08-21T05:18:10;6.50;;;5.45;;
19944;SDS011;10134;50.952;6.930;2022-08-21T05:20:37;13.00;;;6.00;;
19944;SDS011;10134;50.952;6.930;2022-08-21T05:23:08;8.07;;;3.97;;
19944;SDS011;10134;50.952;6.930;2022-08-21T05:25:37;9.35;;;6.22;;
19944;SDS011;10134;50.952;6.930;2022-08-21T05:28:05;10.10;;;5.40;;
19944;SDS011;10134;50.952;6.930;2022-08-21T05:30:34;6.75;;;4.38;;
19944;SDS011;10134;50.952;6.930;2022-08-21T05:33:02;7.47;;;4.22;;
19944;SDS011;10134;50.952;6.930;2022-08-21T05:35:31;8.80;;;4.97;;
19944;SDS011;10134;50.952;6.930;2022-08-21T05:37:59;5.90;;;4.65;;
19944;SDS011;10134;50.952;6.930;2022-08-21T05:40:27;7.88;;;4.38;;
19944;SDS011;10134;50.952;6.930;2022-08-21T05:42:54;9.02;;;5.38;;
19944;SDS011;10134;50.952;6.930;2022-08-21T05:45:23;7.35;;;4.65;;
19944;SDS011;10134;50.952;6.930;2022-08-21T05:48:10;9.20;;;5.03;;
19944;SDS011;10134;50.952;6.930;2022-08-21T05:50:40;10.48;;;6.13;;
19944;SDS011;10134;50.952;6.930;2022-08-21T05:53:08;9.05;;;4.68;;
19944;SDS011;10134;50.952;6.930;2022-08-21T05:55:37;11.70;;;5.20;;
19944;SDS011;10134;50.952;6.930;2022-08-21T05:58:12;6.82;;;4.18;;
19944;SDS011;10134;50.952;6.930;2022-08-21T06:00:42;7.95;;;4.28;;
19944;SDS011;10134;50.952;6.930;2022-08-21T06:03:11;8.10;;;4.18;;
19944;SDS011;10134;50.952;6.930;2022-08-21T06:05:40;5.97;;;4.28;;
19944;SDS011;10134;50.952;6.930;2022-08-21T06:08:07;10.60;;;4.13;;
19944;SDS011;10134;50.952;6.930;2022-08-21T06:10:35;9.88;;;5.18;;
19944;SDS011;10134;50.952;6.930;2022-08-21T06:13:02;12.10;;;4.70;;
19944;SDS011;10134;50.952;6.930;2022-08-21T06:15:31;7.60;;;5.07;;
19944;SDS011;10134;50.952;6.930;2022-08-21T06:17:58;7.75;;;4.32;;
19944;SDS011;10134;50.952;6.930;2022-08-21T06:20:25;5.88;;;3.78;;
19944;SDS011;10134;50.952;6.930;2022-08-21T06:22:53;7.53;;;3.97;;
19944;SDS011;10134;50.952;6.930;2022-08-21T06:25:21;12.32;;;4.55;;
19944;SDS011;10134;50.952;6.930;2022-08-21T06:27:48;10.10;;;5.07;;
19944;SDS011;10134;50.952;6.930;2022-08-21T06:30:15;9.30;;;4.32;;
19944;SDS011;10134;50.952;6.930;2022-08-21T06:32:43;8.30;;;4.53;;
19944;SDS011;10134;50.952;6.930;2022-08-21T06:35:10;8.30;;;3.60;;
19944;SDS011;10134;50.952;6.930;2022-08-21T06:37:38;6.45;;;3.40;;
19944;SDS011;10134;50.952;6.930;2022-08-21T06:40:05;7.78;;;3.65;;
19944;SDS011;10134;50.952;6.930;2022-08-21T06:42:38;8.52;;;3.22;;
19944;SDS011;10134;50.952;6.930;2022-08-21T06:45:09;6.38;;;3.70;;
19944;SDS011;10134;50.952;6.930;2022-08-21T06:47:36;9.50;;;3.70;;
19944;SDS011;10134;50.952;6.930;2022-08-21T06:50:04;5.30;;;3.67;;
19944;SDS011;10134;50.952;6.930;2022-08-21T06:52:37;11.85;;;3.88;;
19944;SDS011;10134;50.952;6.930;2022-08-21T06:55:05;4.63;;;2.45;;
19944;SDS011;10134;50.952;6.930;2022-08-21T06:57:35;5.00;;;3.38;;
19944;SDS011;10134;50.952;6.930;2022-08-21T07:00:03;4.90;;;2.90;;
19944;SDS011;10134;50.952;6.930;2022-08-21T07:02:31;5.70;;;2.63;;
19944;SDS011;10134;50.952;6.930;2022-08-21T07:05:00;4.85;;;2.78;;
19944;SDS011;10134;50.952;6.930;2022-08-21T07:07:44;7.45;;;2.70;;
19944;SDS011;10134;50.952;6.930;2022-08-21T07:10:12;7.00;;;2.67;;
19944;SDS011;10134;50.952;6.930;2022-08-21T07:12:51;3.97;;;2.78;;
19944;SDS011;10134;50.952;6.930;2022-08-21T07:15:28;9.57;;;2.45;;
19944;SDS011;10134;50.952;6.930;2022-08-21T07:17:57;7.63;;;3.00;;
19944;SDS011;10134;50.952;6.930;2022-08-21T07:20:26;4.40;;;2.58;;
19944;SDS011;10134;50.952;6.930;2022-08-21T07:22:56;4.78;;;2.63;;
19944;SDS011;10134;50.952;6.930;2022-08-21T07:25:26;6.75;;;2.17;;
19944;SDS011;10134;50.952;6.930;2022-08-21T07:27:54;4.78;;;2.20;;
19944;SDS011;10134;50.952;6.930;2022-08-21T07:30:22;5.38;;;2.80;;
19944;SDS011;10134;50.952;6.930;2022-08-21T07:32:50;8.48;;;2.60;;
19944;SDS011;10134;50.952;6.930;2022-08-21T07:35:18;8.23;;;1.90;;
19944;SDS011;10134;50.952;6.930;2022-08-21T07:37:47;6.65;;;2.38;;
19944;SDS011;10134;50.952;6.930;2022-08-21T07:40:14;5.25;;;2.20;;
19944;SDS011;10134;50.952;6.930;2022-08-21T07:42:44;7.43;;;3.17;;
19944;SDS011;10134;50.952;6.930;2022-08-21T07:45:13;4.00;;;1.85;;
19944;SDS011;10134;50.952;6.930;2022-08-21T07:47:41;7.60;;;2.50;;
19944;SDS011;10134;50.952;6.930;2022-08-21T07:50:10;6.25;;;2.28;;
19944;SDS011;10134;50.952;6.930;2022-08-21T07:52:39;6.03;;;2.67;;
19944;SDS011;10134;50.952;6.930;2022-08-21T07:55:08;5.20;;;2.75;;
19944;SDS011;10134;50.952;6.930;2022-08-21T07:57:37;6.85;;;2.38;;
19944;SDS011;10134;50.952;6.930;2022-08-21T08:00:06;5.43;;;2.08;;
19944;SDS011;10134;50.952;6.930;2022-08-21T08:02:39;6.72;;;2.08;;
19944;SDS011;10134;50.952;6.930;2022-08-21T08:05:09;5.25;;;2.00;;
19944;SDS011;10134;50.952;6.930;2022-08-21T08:07:37;5.40;;;2.17;;
19944;SDS011;10134;50.952;6.930;2022-08-21T08:10:06;10.52;;;1.98;;
19944;SDS011;10134;50.952;6.930;2022-08-21T08:12:38;5.97;;;1.98;;
19944;SDS011;10134;50.952;6.930;2022-08-21T08:15:09;2.53;;;1.52;;
19944;SDS011;10134;50.952;6.930;2022-08-21T08:17:42;3.90;;;1.90;;
19944;SDS011;10134;50.952;6.930;2022-08-21T08:20:11;6.18;;;1.85;;
19944;SDS011;10134;50.952;6.930;2022-08-21T08:22:39;4.35;;;2.22;;
19944;SDS011;10134;50.952;6.930;2022-08-21T08:25:08;3.72;;;1.63;;
19944;SDS011;10134;50.952;6.930;2022-08-21T08:27:37;6.57;;;1.50;;
19944;SDS011;10134;50.952;6.930;2022-08-21T08:30:05;5.22;;;1.48;;
19944;SDS011;10134;50.952;6.930;2022-08-21T08:32:33;9.75;;;2.30;;
19944;SDS011;10134;50.952;6.930;2022-08-21T08:35:01;5.00;;;2.05;;
19944;SDS011;10134;50.952;6.930;2022-08-21T08:37:29;4.60;;;1.60;;
19944;SDS011;10134;50.952;6.930;2022-08-21T08:40:00;4.43;;;1.35;;
19944;SDS011;10134;50.952;6.930;2022-08-21T08:42:31;3.80;;;1.80;;
19944;SDS011;10134;50.952;6.930;2022-08-21T08:48:05;5.22;;;1.42;;
19944;SDS011;10134;50.952;6.930;2022-08-21T08:50:41;7.18;;;2.50;;
19944;SDS011;10134;50.952;6.930;2022-08-21T08:53:17;9.30;;;4.18;;
19944;SDS011;10134;50.952;6.930;2022-08-21T08:55:50;8.45;;;4.72;;
19944;SDS011;10134;50.952;6.930;2022-08-21T08:58:29;4.95;;;2.95;;
19944;SDS011;10134;50.952;6.930;2022-08-21T09:00:59;9.10;;;3.72;;
19944;SDS011;10134;50.952;6.930;2022-08-21T09:03:27;9.35;;;2.47;;
19944;SDS011;10134;50.952;6.930;2022-08-21T09:06:03;5.30;;;2.50;;
19944;SDS011;10134;50.952;6.930;2022-08-21T09:11:29;5.32;;;1.70;;
19944;SDS011;10134;50.952;6.930;2022-08-21T09:14:22;6.60;;;2.08;;
19944;SDS011;10134;50.952;6.930;2022-08-21T09:26:18;3.95;;;1.60;;
19944;SDS011;10134;50.952;6.930;2022-08-21T09:28:50;4.28;;;1.95;;
19944;SDS011;10134;50.952;6.930;2022-08-21T09:31:21;5.53;;;1.75;;
19944;SDS011;10134;50.952;6.930;2022-08-21T09:33:59;3.90;;;1.60;;
19944;SDS011;10134;50.952;6.930;2022-08-21T09:36:41;6.00;;;1.95;;
19944;SDS011;10134;50.952;6.930;2022-08-21T09:39:21;6.00;;;2.00;;
19944;SDS011;10134;50.952;6.930;2022-08-21T09:42:02;4.60;;;1.75;;
19944;SDS011;10134;50.952;6.930;2022-08-21T09:44:35;7.15;;;2.50;;
19944;SDS011;10134;50.952;6.930;2022-08-21T09:47:07;5.65;;;2.25;;
19944;SDS011;10134;50.952;6.930;2022-08-21T09:49:40;3.08;;;1.67;;
19944;SDS011;10134;50.952;6.930;2022-08-21T09:52:19;4.47;;;1.42;;
19944;SDS011;10134;50.952;6.930;2022-08-21T09:54:50;5.65;;;1.30;;
19944;SDS011;10134;50.952;6.930;2022-08-21T09:57:24;4.65;;;3.08;;
19944;SDS011;10134;50.952;6.930;2022-08-21T10:02:53;4.40;;;1.77;;
19944;SDS011;10134;50.952;6.930;2022-08-21T10:05:22;13.52;;;1.95;;
19944;SDS011;10134;50.952;6.930;2022-08-21T10:07:52;8.27;;;1.77;;
19944;SDS011;10134;50.952;6.930;2022-08-21T10:10:21;6.13;;;1.55;;
19944;SDS011;10134;50.952;6.930;2022-08-21T10:18:45;3.38;;;1.35;;
19944;SDS011;10134;50.952;6.930;2022-08-21T10:21:20;4.38;;;1.38;;
19944;SDS011;10134;50.952;6.930;2022-08-21T10:29:38;4.72;;;1.75;;
19944;SDS011;10134;50.952;6.930;2022-08-21T10:32:26;4.78;;;1.73;;
19944;SDS011;10134;50.952;6.930;2022-08-21T10:35:19;6.03;;;1.77;;
19944;SDS011;10134;50.952;6.930;2022-08-21T10:38:21;9.05;;;4.97;;
19944;SDS011;10134;50.952;6.930;2022-08-21T10:44:38;5.07;;;2.38;;
19944;SDS011;10134;50.952;6.930;2022-08-21T10:47:30;6.00;;;1.90;;
19944;SDS011;10134;50.952;6.930;2022-08-21T10:55:26;6.57;;;1.40;;
19944;SDS011;10134;50.952;6.930;2022-08-21T10:57:59;3.30;;;1.20;;
19944;SDS011;10134;50.952;6.930;2022-08-21T11:00:46;3.05;;;1.30;;
19944;SDS011;10134;50.952;6.930;2022-08-21T11:03:19;3.95;;;1.15;;
19944;SDS011;10134;50.952;6.930;2022-08-21T11:06:16;4.82;;;1.23;;
19944;SDS011;10134;50.952;6.930;2022-08-21T11:08:58;4.35;;;1.80;;
19944;SDS011;10134;50.952;6.930;2022-08-21T11:11:35;4.00;;;1.52;;
19944;SDS011;10134;50.952;6.930;2022-08-21T11:17:16;4.00;;;1.27;;
19944;SDS011;10134;50.952;6.930;2022-08-21T11:19:50;6.90;;;1.52;;
19944;SDS011;10134;50.952;6.930;2022-08-21T11:30:32;3.58;;;1.85;;
19944;SDS011;10134;50.952;6.930;2022-08-21T11:34:14;6.03;;;1.77;;
19944;SDS011;10134;50.952;6.930;2022-08-21T11:36:12;4.32;;;1.33;;
19944;SDS011;10134;50.952;6.930;2022-08-21T11:38:42;6.75;;;2.38;;
19944;SDS011;10134;50.952;6.930;2022-08-21T11:44:08;5.18;;;1.60;;
19944;SDS011;10134;50.952;6.930;2022-08-21T11:49:23;3.72;;;1.50;;
19944;SDS011;10134;50.952;6.930;2022-08-21T11:52:17;1.92;;;0.93;;
19944;SDS011;10134;50.952;6.930;2022-08-21T11:55:02;3.95;;;1.20;;
19944;SDS011;10134;50.952;6.930;2022-08-21T12:02:56;3.50;;;1.15;;
19944;SDS011;10134;50.952;6.930;2022-08-21T12:05:33;2.92;;;1.13;;
19944;SDS011;10134;50.952;6.930;2022-08-21T12:08:14;4.68;;;1.27;;
19944;SDS011;10134;50.952;6.930;2022-08-21T12:11:27;6.70;;;1.58;;
19944;SDS011;10134;50.952;6.930;2022-08-21T12:16:31;5.97;;;1.50;;
19944;SDS011;10134;50.952;6.930;2022-08-21T12:19:04;4.47;;;1.33;;
19944;SDS011;10134;50.952;6.930;2022-08-21T12:24:19;4.65;;;2.10;;
19944;SDS011;10134;50.952;6.930;2022-08-21T12:26:58;3.05;;;1.80;;
19944;SDS011;10134;50.952;6.930;2022-08-21T12:29:28;7.22;;;1.48;;
19944;SDS011;10134;50.952;6.930;2022-08-21T12:32:03;3.28;;;1.20;;
19944;SDS011;10134;50.952;6.930;2022-08-21T12:35:02;4.00;;;1.75;;
19944;SDS011;10134;50.952;6.930;2022-08-21T12:37:59;3.67;;;1.58;;
19944;SDS011;10134;50.952;6.930;2022-08-21T12:40:43;2.60;;;1.00;;
19944;SDS011;10134;50.952;6.930;2022-08-21T12:43:21;2.45;;;1.40;;
19944;SDS011;10134;50.952;6.930;2022-08-21T12:46:04;5.32;;;1.75;;
19944;SDS011;10134;50.952;6.930;2022-08-21T12:48:33;6.95;;;1.85;;
19944;SDS011;10134;50.952;6.930;2022-08-21T12:51:15;5.10;;;1.48;;
19944;SDS011;10134;50.952;6.930;2022-08-21T12:53:50;4.78;;;1.80;;
19944;SDS011;10134;50.952;6.930;2022-08-21T12:56:22;4.07;;;1.55;;
19944;SDS011;10134;50.952;6.930;2022-08-21T12:58:53;2.97;;;1.40;;
19944;SDS011;10134;50.952;6.930;2022-08-21T13:04:23;5.63;;;1.33;;
19944;SDS011;10134;50.952;6.930;2022-08-21T13:07:05;8.25;;;1.73;;
19944;SDS011;10134;50.952;6.930;2022-08-21T13:09:47;5.10;;;1.58;;
19944;SDS011;10134;50.952;6.930;2022-08-21T13:12:21;3.45;;;1.25;;
19944;SDS011;10134;50.952;6.930;2022-08-21T13:14:55;5.78;;;1.20;;
19944;SDS011;10134;50.952;6.930;2022-08-21T13:17:29;4.95;;;1.00;;
19944;SDS011;10134;50.952;6.930;2022-08-21T13:20:00;3.13;;;1.27;;
19944;SDS011;10134;50.952;6.930;2022-08-21T13:22:30;3.40;;;1.30;;
19944;SDS011;10134;50.952;6.930;2022-08-21T13:25:01;2.75;;;1.10;;
19944;SDS011;10134;50.952;6.930;2022-08-21T13:27:35;1.95;;;1.00;;
19944;SDS011;10134;50.952;6.930;2022-08-21T13:30:13;3.83;;;1.20;;
19944;SDS011;10134;50.952;6.930;2022-08-21T13:32:45;4.57;;;1.50;;
19944;SDS011;10134;50.952;6.930;2022-08-21T13:35:18;4.47;;;1.38;;
19944;SDS011;10134;50.952;6.930;2022-08-21T13:37:52;3.75;;;1.30;;
19944;SDS011;10134;50.952;6.930;2022-08-21T13:43:12;4.50;;;1.50;;
19944;SDS011;10134;50.952;6.930;2022-08-21T13:45:48;4.00;;;1.52;;
19944;SDS011;10134;50.952;6.930;2022-08-21T13:48:16;4.40;;;1.52;;
19944;SDS011;10134;50.952;6.930;2022-08-21T13:50:44;6.45;;;1.20;;
19944;SDS011;10134;50.952;6.930;2022-08-21T13:56:00;4.95;;;1.40;;
19944;SDS011;10134;50.952;6.930;2022-08-21T13:58:30;3.45;;;1.42;;
19944;SDS011;10134;50.952;6.930;2022-08-21T14:01:19;3.03;;;0.98;;
19944;SDS011;10134;50.952;6.930;2022-08-21T14:03:53;2.45;;;1.13;;
19944;SDS011;10134;50.952;6.930;2022-08-21T14:06:25;4.68;;;1.50;;
19944;SDS011;10134;50.952;6.930;2022-08-21T14:09:03;6.43;;;1.33;;
19944;SDS011;10134;50.952;6.930;2022-08-21T14:11:37;3.00;;;1.05;;
19944;SDS011;10134;50.952;6.930;2022-08-21T14:16:46;4.30;;;1.20;;
19944;SDS011;10134;50.952;6.930;2022-08-21T14:19:23;3.38;;;1.40;;
19944;SDS011;10134;50.952;6.930;2022-08-21T14:25:30;3.78;;;1.35;;
19944;SDS011;10134;50.952;6.930;2022-08-21T14:28:31;2.17;;;1.10;;
19944;SDS011;10134;50.952;6.930;2022-08-21T14:31:14;2.63;;;1.23;;
19944;SDS011;10134;50.952;6.930;2022-08-21T14:33:45;5.65;;;1.23;;
19944;SDS011;10134;50.952;6.930;2022-08-21T14:36:13;2.33;;;1.40;;
19944;SDS011;10134;50.952;6.930;2022-08-21T14:38:41;4.55;;;1.40;;
19944;SDS011;10134;50.952;6.930;2022-08-21T14:43:52;13.52;;;5.18;;
19944;SDS011;10134;50.952;6.930;2022-08-21T14:46:31;26.98;;;12.18;;
19944;SDS011;10134;50.952;6.930;2022-08-21T14:49:09;4.75;;;2.15;;
19944;SDS011;10134;50.952;6.930;2022-08-21T14:51:37;7.57;;;2.30;;
19944;SDS011;10134;50.952;6.930;2022-08-21T14:54:20;1.70;;;1.00;;
19944;SDS011;10134;50.952;6.930;2022-08-21T14:56:57;3.10;;;1.45;;
19944;SDS011;10134;50.952;6.930;2022-08-21T14:59:27;3.45;;;1.50;;
19944;SDS011;10134;50.952;6.930;2022-08-21T15:01:55;2.17;;;1.05;;
19944;SDS011;10134;50.952;6.930;2022-08-21T15:04:23;2.55;;;1.25;;
19944;SDS011;10134;50.952;6.930;2022-08-21T15:06:50;3.95;;;1.52;;
19944;SDS011;10134;50.952;6.930;2022-08-21T15:09:17;1.95;;;0.82;;
19944;SDS011;10134;50.952;6.930;2022-08-21T15:11:45;2.35;;;0.88;;
19944;SDS011;10134;50.952;6.930;2022-08-21T15:14:15;4.47;;;1.00;;
19944;SDS011;10134;50.952;6.930;2022-08-21T15:16:46;4.72;;;1.58;;
19944;SDS011;10134;50.952;6.930;2022-08-21T15:19:15;3.33;;;1.45;;
19944;SDS011;10134;50.952;6.930;2022-08-21T15:21:42;3.00;;;1.00;;
19944;SDS011;10134;50.952;6.930;2022-08-21T15:24:09;3.05;;;1.33;;
19944;SDS011;10134;50.952;6.930;2022-08-21T15:26:37;4.70;;;1.63;;
19944;SDS011;10134;50.952;6.930;2022-08-21T15:29:05;3.78;;;1.20;;
19944;SDS011;10134;50.952;6.930;2022-08-21T15:31:35;4.00;;;1.50;;
19944;SDS011;10134;50.952;6.930;2022-08-21T15:34:02;2.22;;;0.93;;
19944;SDS011;10134;50.952;6.930;2022-08-21T15:36:30;4.55;;;1.13;;
19944;SDS011;10134;50.952;6.930;2022-08-21T15:38:57;2.53;;;1.10;;
19944;SDS011;10134;50.952;6.930;2022-08-21T15:41:25;3.30;;;0.90;;
19944;SDS011;10134;50.952;6.930;2022-08-21T15:43:52;3.28;;;1.15;;
19944;SDS011;10134;50.952;6.930;2022-08-21T15:46:20;2.22;;;0.90;;
19944;SDS011;10134;50.952;6.930;2022-08-21T15:48:51;2.55;;;1.30;;
19944;SDS011;10134;50.952;6.930;2022-08-21T15:51:25;2.13;;;1.30;;
19944;SDS011;10134;50.952;6.930;2022-08-21T15:53:52;1.60;;;1.10;;
19944;SDS011;10134;50.952;6.930;2022-08-21T15:56:24;1.90;;;1.15;;
19944;SDS011;10134;50.952;6.930;2022-08-21T15:59:03;4.25;;;1.38;;
19944;SDS011;10134;50.952;6.930;2022-08-21T16:01:34;3.55;;;1.35;;
19944;SDS011;10134;50.952;6.930;2022-08-21T16:04:13;1.92;;;1.10;;
19944;SDS011;10134;50.952;6.930;2022-08-21T16:06:46;2.70;;;1.20;;
19944;SDS011;10134;50.952;6.930;2022-08-21T16:09:23;4.00;;;1.70;;
19944;SDS011;10134;50.952;6.930;2022-08-21T16:11:51;3.42;;;1.15;;
19944;SDS011;10134;50.952;6.930;2022-08-21T16:14:19;3.60;;;0.95;;
19944;SDS011;10134;50.952;6.930;2022-08-21T16:16:47;5.30;;;1.55;;
19944;SDS011;10134;50.952;6.930;2022-08-21T16:19:14;5.05;;;1.20;;
19944;SDS011;10134;50.952;6.930;2022-08-21T16:21:42;1.77;;;1.00;;
19944;SDS011;10134;50.952;6.930;2022-08-21T16:24:09;1.33;;;1.00;;
19944;SDS011;10134;50.952;6.930;2022-08-21T16:26:37;5.55;;;1.40;;
19944;SDS011;10134;50.952;6.930;2022-08-21T16:29:05;3.38;;;1.25;;
19944;SDS011;10134;50.952;6.930;2022-08-21T16:31:34;3.10;;;1.45;;
19944;SDS011;10134;50.952;6.930;2022-08-21T16:34:02;6.55;;;2.67;;
19944;SDS011;10134;50.952;6.930;2022-08-21T16:36:29;3.17;;;1.08;;